Time,TemperatureF,DewpointF,PressureIn,WindDirection,WindDirectionDegrees,WindSpeedMPH,WindSpeedGustMPH,Humidity,HourlyPrecipIn,Conditions,Clouds,dailyrainin,SoftwareType,DateUTC
2013-12-08 00:03:00,76.2,71.0,30.16,ESE,105,0.0,-999.0,83,-99.99,,,0.01,weatherlink.com 1.10,2013-12-08 05:03:00,
2013-12-08 00:18:00,76.5,71.0,30.16,ESE,119,6.0,-999.0,84,-99.99,,,0.01,weatherlink.com 1.10,2013-12-08 05:18:00,
2013-12-08 00:34:00,76.5,71.0,30.15,South,178,0.0,-999.0,82,-99.99,,,0.01,weatherlink.com 1.10,2013-12-08 05:34:00,
2013-12-08 00:48:00,76.6,70.0,30.15,SSW,196,1.0,-999.0,79,-99.99,,,0.01,weatherlink.com 1.10,2013-12-08 05:48:00,
2013-12-08 01:03:00,76.7,69.0,30.15,ESE,103,5.0,-999.0,77,-99.99,,,0.01,weatherlink.com 1.10,2013-12-08 06:03:00,
2013-12-08 01:18:00,76.0,71.0,30.15,ESE,106,6.0,-999.0,84,-99.99,,,0.01,weatherlink.com 1.10,2013-12-08 06:18:00,
2013-12-08 01:33:00,74.8,70.0,30.15,SSE,155,4.0,-999.0,86,-99.99,,,0.01,weatherlink.com 1.10,2013-12-08 06:33:00,
2013-12-08 01:48:00,74.4,70.0,30.15,ESE,113,7.0,-999.0,86,-99.99,,,0.01,weatherlink.com 1.10,2013-12-08 06:48:00,
2013-12-08 02:03:00,73.6,69.0,30.15,SE,128,4.0,-999.0,86,-99.99,,,0.01,weatherlink.com 1.10,2013-12-08 07:03:00,
2013-12-08 02:18:00,73.3,70.0,30.15,SE,146,4.0,-999.0,90,-99.99,,,0.01,weatherlink.com 1.10,2013-12-08 07:18:00,
2013-12-08 02:33:00,72.8,70.0,30.14,SE,139,2.0,-999.0,91,-99.99,,,0.01,weatherlink.com 1.10,2013-12-08 07:33:00,
2013-12-08 02:48:00,71.8,69.0,30.14,SE,136,4.0,-999.0,90,-99.99,,,0.01,weatherlink.com 1.10,2013-12-08 07:48:00,
2013-12-08 03:03:00,71.8,69.0,30.14,SE,124,2.0,-999.0,89,-99.99,,,0.01,weatherlink.com 1.10,2013-12-08 08:03:00,
2013-12-08 03:18:00,72.6,67.0,30.13,ENE,71,4.0,-999.0,82,-99.99,,,0.00,weatherlink.com 1.10,2013-12-08 08:18:00,
2013-12-08 03:33:00,75.0,68.0,30.13,SE,144,1.0,-999.0,79,-99.99,,,0.00,weatherlink.com 1.10,2013-12-08 08:33:00,
2013-12-08 03:48:00,74.7,69.0,30.13,SE,126,4.0,-999.0,83,-99.99,,,0.00,weatherlink.com 1.10,2013-12-08 08:48:00,
2013-12-08 04:03:00,73.8,69.0,30.13,SSW,199,0.0,-999.0,85,-99.99,,,0.00,weatherlink.com 1.10,2013-12-08 09:03:00,
2013-12-08 04:18:00,73.1,69.0,30.13,South,189,0.0,-999.0,87,-99.99,,,0.00,weatherlink.com 1.10,2013-12-08 09:18:00,
2013-12-08 04:33:00,73.0,70.0,30.12,South,189,0.0,-999.0,89,-99.99,,,0.00,weatherlink.com 1.10,2013-12-08 09:33:00,
2013-12-08 04:48:00,72.3,69.0,30.13,South,188,0.0,-999.0,89,-99.99,,,0.00,weatherlink.com 1.10,2013-12-08 09:48:00,
2013-12-08 05:03:00,71.8,69.0,30.13,South,188,0.0,-999.0,90,-99.99,,,0.00,weatherlink.com 1.10,2013-12-08 10:03:00,
2013-12-08 05:18:00,71.4,69.0,30.13,SE,145,0.0,-999.0,92,-99.99,,,0.00,weatherlink.com 1.10,2013-12-08 10:18:00,
2013-12-08 05:33:00,71.5,69.0,30.14,SE,133,0.0,-999.0,91,-99.99,,,0.00,weatherlink.com 1.10,2013-12-08 10:33:00,
2013-12-08 05:48:00,72.7,68.0,30.14,ESE,107,0.0,-999.0,86,-99.99,,,0.00,weatherlink.com 1.10,2013-12-08 10:48:00,
2013-12-08 06:03:00,73.4,68.0,30.14,SE,126,0.0,-999.0,82,-99.99,,,0.00,weatherlink.com 1.10,2013-12-08 11:03:00,
2013-12-08 06:18:00,73.3,68.0,30.14,SSE,152,2.0,-999.0,82,-99.99,,,0.00,weatherlink.com 1.10,2013-12-08 11:18:00,
2013-12-08 06:33:00,73.5,67.0,30.15,SE,140,0.0,-999.0,81,-99.99,,,0.00,weatherlink.com 1.10,2013-12-08 11:33:00,
2013-12-08 06:48:00,73.2,67.0,30.16,SE,140,0.0,-999.0,82,-99.99,,,0.00,weatherlink.com 1.10,2013-12-08 11:48:00,
2013-12-08 07:03:00,73.1,68.0,30.16,SE,134,0.0,-999.0,83,-99.99,,,0.00,weatherlink.com 1.10,2013-12-08 12:03:00,
2013-12-08 07:18:00,72.8,68.0,30.17,ESE,110,0.0,-999.0,84,-99.99,,,0.00,weatherlink.com 1.10,2013-12-08 12:18:00,
2013-12-08 07:33:00,73.5,68.0,30.17,East,100,0.0,-999.0,84,-99.99,,,0.00,weatherlink.com 1.10,2013-12-08 12:33:00,
2013-12-08 07:48:00,74.6,68.0,30.18,ESE,120,1.0,-999.0,81,-99.99,,,0.00,weatherlink.com 1.10,2013-12-08 12:48:00,
2013-12-08 08:03:00,75.0,69.0,30.18,SE,138,0.0,-999.0,81,-99.99,,,0.00,weatherlink.com 1.10,2013-12-08 13:03:00,
2013-12-08 08:18:00,75.6,69.0,30.19,ESE,123,1.0,-999.0,81,-99.99,,,0.00,weatherlink.com 1.10,2013-12-08 13:18:00,
2013-12-08 08:33:00,75.4,69.0,30.19,ESE,115,0.0,-999.0,81,-99.99,,,0.00,weatherlink.com 1.10,2013-12-08 13:33:00,
2013-12-08 08:48:00,76.7,71.0,30.19,SE,130,0.0,-999.0,81,-99.99,,,0.00,weatherlink.com 1.10,2013-12-08 13:48:00,
2013-12-08 09:03:00,77.7,70.0,30.20,SE,134,0.0,-999.0,78,-99.99,,,0.00,weatherlink.com 1.10,2013-12-08 14:03:00,
2013-12-08 09:18:00,78.8,70.0,30.20,ESE,107,2.0,-999.0,75,-99.99,,,0.00,weatherlink.com 1.10,2013-12-08 14:18:00,
2013-12-08 09:33:00,79.3,70.0,30.20,ESE,105,8.0,-999.0,74,-99.99,,,0.00,weatherlink.com 1.10,2013-12-08 14:33:00,
2013-12-08 09:48:00,79.0,71.0,30.20,ESE,103,1.0,-999.0,76,-99.99,,,0.00,weatherlink.com 1.10,2013-12-08 14:48:00,
2013-12-08 10:03:00,79.4,72.0,30.19,ESE,106,6.0,-999.0,78,-99.99,,,0.00,weatherlink.com 1.10,2013-12-08 15:03:00,
2013-12-08 10:19:00,79.7,72.0,30.19,ENE,78,1.0,-999.0,76,-99.99,,,0.00,weatherlink.com 1.10,2013-12-08 15:19:00,
2013-12-08 10:34:00,79.7,71.0,30.19,SE,138,1.0,-999.0,74,-99.99,,,0.00,weatherlink.com 1.10,2013-12-08 15:34:00,
2013-12-08 10:49:00,80.0,71.0,30.19,East,86,1.0,-999.0,74,-99.99,,,0.00,weatherlink.com 1.10,2013-12-08 15:49:00,
2013-12-08 11:04:00,81.6,71.0,30.18,South,179,1.0,-999.0,70,-99.99,,,0.00,weatherlink.com 1.10,2013-12-08 16:04:00,
2013-12-08 11:19:00,81.7,71.0,30.18,SSW,206,4.0,-999.0,69,-99.99,,,0.00,weatherlink.com 1.10,2013-12-08 16:19:00,
2013-12-08 11:34:00,82.6,72.0,30.17,SE,132,5.0,-999.0,70,-99.99,,,0.00,weatherlink.com 1.10,2013-12-08 16:34:00,
2013-12-08 11:49:00,82.7,71.0,30.17,South,175,4.0,-999.0,68,-99.99,,,0.00,weatherlink.com 1.10,2013-12-08 16:49:00,
2013-12-08 12:04:00,82.1,71.0,30.16,SE,126,6.0,-999.0,68,-99.99,,,0.00,weatherlink.com 1.10,2013-12-08 17:04:00,
2013-12-08 12:19:00,82.4,69.0,30.16,ESE,108,5.0,-999.0,65,-99.99,,,0.00,weatherlink.com 1.10,2013-12-08 17:19:00,
2013-12-08 12:34:00,82.4,70.0,30.15,SSE,156,5.0,-999.0,67,-99.99,,,0.00,weatherlink.com 1.10,2013-12-08 17:34:00,
2013-12-08 12:49:00,82.6,69.0,30.14,SE,146,4.0,-999.0,64,-99.99,,,0.00,weatherlink.com 1.10,2013-12-08 17:49:00,
2013-12-08 13:04:00,82.7,69.0,30.14,ESE,122,2.0,-999.0,64,-99.99,,,0.00,weatherlink.com 1.10,2013-12-08 18:04:00,
2013-12-08 13:19:00,82.7,70.0,30.13,SE,130,5.0,-999.0,65,-99.99,,,0.00,weatherlink.com 1.10,2013-12-08 18:19:00,
2013-12-08 13:34:00,83.0,70.0,30.13,SSE,160,2.0,-999.0,65,-99.99,,,0.00,weatherlink.com 1.10,2013-12-08 18:34:00,
2013-12-08 13:49:00,82.5,70.0,30.12,SE,130,4.0,-999.0,66,-99.99,,,0.00,weatherlink.com 1.10,2013-12-08 18:49:00,
2013-12-08 14:19:00,81.6,70.0,30.12,ESE,106,8.0,-999.0,68,-99.99,,,0.00,weatherlink.com 1.10,2013-12-08 19:19:00,
2013-12-08 14:34:00,82.3,71.0,30.12,SE,142,10.0,-999.0,68,-99.99,,,0.00,weatherlink.com 1.10,2013-12-08 19:34:00,
2013-12-08 14:49:00,82.4,69.0,30.11,South,171,6.0,-999.0,65,-99.99,,,0.00,weatherlink.com 1.10,2013-12-08 19:49:00,
2013-12-08 15:04:00,81.9,69.0,30.11,SSE,163,8.0,-999.0,66,-99.99,,,0.00,weatherlink.com 1.10,2013-12-08 20:04:00,
2013-12-08 15:19:00,81.6,70.0,30.12,SE,131,2.0,-999.0,68,-99.99,,,0.00,weatherlink.com 1.10,2013-12-08 20:19:00,
2013-12-08 15:34:00,81.4,70.0,30.12,SSW,204,8.0,-999.0,68,-99.99,,,0.00,weatherlink.com 1.10,2013-12-08 20:34:00,
2013-12-08 15:49:00,81.0,69.0,30.11,SSE,165,8.0,-999.0,67,-99.99,,,0.00,weatherlink.com 1.10,2013-12-08 20:49:00,
2013-12-08 16:04:00,80.8,69.0,30.11,SE,130,2.0,-999.0,67,-99.99,,,0.00,weatherlink.com 1.10,2013-12-08 21:04:00,
2013-12-08 16:19:00,80.2,69.0,30.12,SSE,150,6.0,-999.0,69,-99.99,,,0.00,weatherlink.com 1.10,2013-12-08 21:19:00,
2013-12-08 16:34:00,79.7,69.0,30.11,SSW,207,7.0,-999.0,69,-99.99,,,0.00,weatherlink.com 1.10,2013-12-08 21:34:00,
2013-12-08 16:49:00,79.1,69.0,30.11,SW,217,1.0,-999.0,71,-99.99,,,0.00,weatherlink.com 1.10,2013-12-08 21:49:00,
2013-12-08 17:04:00,78.6,69.0,30.11,SE,126,1.0,-999.0,72,-99.99,,,0.00,weatherlink.com 1.10,2013-12-08 22:04:00,
2013-12-08 17:19:00,78.0,69.0,30.11,SE,126,2.0,-999.0,73,-99.99,,,0.00,weatherlink.com 1.10,2013-12-08 22:19:00,
2013-12-08 17:34:00,77.5,69.0,30.12,SE,143,4.0,-999.0,74,-99.99,,,0.00,weatherlink.com 1.10,2013-12-08 22:34:00,
2013-12-08 17:49:00,77.0,69.0,30.12,SE,142,0.0,-999.0,76,-99.99,,,0.00,weatherlink.com 1.10,2013-12-08 22:49:00,
2013-12-08 18:04:00,76.6,69.0,30.12,East,92,1.0,-999.0,77,-99.99,,,0.00,weatherlink.com 1.10,2013-12-08 23:04:00,
2013-12-08 18:19:00,76.3,69.0,30.12,SE,141,0.0,-999.0,77,-99.99,,,0.00,weatherlink.com 1.10,2013-12-08 23:19:00,
2013-12-08 18:34:00,76.2,69.0,30.13,South,180,0.0,-999.0,78,-99.99,,,0.00,weatherlink.com 1.10,2013-12-08 23:34:00,
2013-12-08 18:49:00,76.0,69.0,30.13,ESE,123,0.0,-999.0,78,-99.99,,,0.00,weatherlink.com 1.10,2013-12-08 23:49:00,
2013-12-08 19:04:00,75.9,69.0,30.14,SE,126,0.0,-999.0,78,-99.99,,,0.00,weatherlink.com 1.10,2013-12-09 00:04:00,
2013-12-08 19:19:00,76.0,69.0,30.14,SSE,165,0.0,-999.0,78,-99.99,,,0.00,weatherlink.com 1.10,2013-12-09 00:19:00,
2013-12-08 19:34:00,76.5,70.0,30.14,SE,138,1.0,-999.0,79,-99.99,,,0.00,weatherlink.com 1.10,2013-12-09 00:34:00,
2013-12-08 19:49:00,77.0,70.0,30.14,SE,124,5.0,-999.0,79,-99.99,,,0.00,weatherlink.com 1.10,2013-12-09 00:49:00,
2013-12-08 20:04:00,77.1,71.0,30.15,SE,126,6.0,-999.0,80,-99.99,,,0.00,weatherlink.com 1.10,2013-12-09 01:04:00,
2013-12-08 20:19:00,76.8,71.0,30.15,SSW,203,0.0,-999.0,81,-99.99,,,0.00,weatherlink.com 1.10,2013-12-09 01:19:00,
2013-12-08 20:34:00,76.7,71.0,30.15,East,94,0.0,-999.0,81,-99.99,,,0.00,weatherlink.com 1.10,2013-12-09 01:34:00,
2013-12-08 20:49:00,76.5,71.0,30.15,SE,133,0.0,-999.0,82,-99.99,,,0.00,weatherlink.com 1.10,2013-12-09 01:49:00,
2013-12-08 21:04:00,76.5,71.0,30.15,SSE,152,1.0,-999.0,82,-99.99,,,0.00,weatherlink.com 1.10,2013-12-09 02:04:00,
2013-12-08 21:19:00,76.8,71.0,30.15,ESE,115,4.0,-999.0,82,-99.99,,,0.00,weatherlink.com 1.10,2013-12-09 02:19:00,
2013-12-08 21:34:00,76.8,71.0,30.15,SSE,165,1.0,-999.0,82,-99.99,,,0.00,weatherlink.com 1.10,2013-12-09 02:34:00,
2013-12-08 21:49:00,76.8,71.0,30.15,ESE,103,5.0,-999.0,82,-99.99,,,0.00,weatherlink.com 1.10,2013-12-09 02:49:00,
2013-12-08 22:04:00,76.8,71.0,30.16,SE,141,2.0,-999.0,82,-99.99,,,0.00,weatherlink.com 1.10,2013-12-09 03:04:00,
2013-12-08 22:19:00,76.7,71.0,30.16,East,89,1.0,-999.0,82,-99.99,,,0.00,weatherlink.com 1.10,2013-12-09 03:19:00,
2013-12-08 22:34:00,76.9,71.0,30.16,SE,126,1.0,-999.0,82,-99.99,,,0.00,weatherlink.com 1.10,2013-12-09 03:34:00,
2013-12-08 22:49:00,77.1,71.0,30.15,South,178,1.0,-999.0,82,-99.99,,,0.00,weatherlink.com 1.10,2013-12-09 03:49:00,
2013-12-08 23:04:00,77.0,71.0,30.15,East,91,1.0,-999.0,82,-99.99,,,0.00,weatherlink.com 1.10,2013-12-09 04:04:00,
2013-12-08 23:19:00,77.1,71.0,30.15,ESE,110,0.0,-999.0,82,-99.99,,,0.00,weatherlink.com 1.10,2013-12-09 04:19:00,
2013-12-08 23:34:00,77.0,71.0,30.14,SSE,148,7.0,-999.0,82,-99.99,,,0.00,weatherlink.com 1.10,2013-12-09 04:34:00,
2013-12-08 23:49:00,76.8,71.0,30.14,ESE,117,5.0,-999.0,82,-99.99,,,0.00,weatherlink.com 1.10,2013-12-09 04:49:00,